createdAt,value
2023-05-10T00:00:32.579Z,68.4615
2023-05-10T00:01:34.268Z,66.6154
2023-05-10T00:02:35.854Z,61.3846
2023-05-10T00:03:37.501Z,62.0000
2023-05-10T00:04:39.121Z,66.3077
2023-05-10T00:05:40.789Z,63.0000
2023-05-10T00:06:42.377Z,64.7692
2023-05-10T00:07:44.033Z,62.5385
2023-05-10T00:08:45.655Z,67.9231
2023-05-10T00:09:47.305Z,62.3846
2023-05-10T00:10:48.989Z,59.7692
2023-05-10T00:11:50.558Z,63.7692
2023-05-10T00:12:52.239Z,62.0769
2023-05-10T00:13:53.815Z,59.8462
2023-05-10T00:14:55.488Z,62.7692
2023-05-10T00:15:57.156Z,58.9231
2023-05-10T00:16:58.824Z,57.7692
2023-05-10T00:18:00.500Z,56.3846
2023-05-10T00:19:01.990Z,59.3077
2023-05-10T00:20:03.740Z,56.3077
2023-05-10T00:21:05.385Z,53.5385
2023-05-10T00:22:07.009Z,59.8462
2023-05-10T00:23:08.652Z,54.8462
2023-05-10T00:24:10.349Z,54.4615
2023-05-10T00:25:11.977Z,56.6154
2023-05-10T00:26:13.623Z,51.5385
2023-05-10T00:27:15.239Z,53.7692
2023-05-10T00:28:16.862Z,57.1538
2023-05-10T00:29:18.464Z,52.3846
2023-05-10T00:30:20.097Z,51.3077
2023-05-10T00:31:21.744Z,50.6923
2023-05-10T00:32:23.503Z,50.9231
2023-05-10T00:33:25.091Z,46.3846
2023-05-10T00:34:26.697Z,53.0000
2023-05-10T00:35:28.349Z,49.1538
2023-05-10T00:36:29.978Z,50.6923
2023-05-10T00:37:31.664Z,48.6923
2023-05-10T00:38:33.207Z,50.6154
2023-05-10T00:39:34.881Z,48.0769
2023-05-10T00:40:36.595Z,51.6154
2023-05-10T00:41:38.179Z,46.8462
2023-05-10T00:42:39.781Z,43.7692
2023-05-10T00:43:41.458Z,45.8462
2023-05-10T00:44:43.045Z,49.0000
2023-05-10T00:45:44.749Z,51.6923
2023-05-10T00:46:46.348Z,44.0000
2023-05-10T00:47:48.079Z,46.0000
2023-05-10T00:48:49.674Z,45.7692
2023-05-10T00:49:51.249Z,50.7692
2023-05-10T00:50:52.969Z,43.5385
2023-05-10T00:51:55.180Z,43.0000
2023-05-10T00:52:57.127Z,45.3077
2023-05-10T00:53:57.839Z,45.6154
2023-05-10T00:54:59.543Z,41.3077
2023-05-10T00:56:01.161Z,46.0769
2023-05-10T00:57:02.831Z,43.6923
2023-05-10T00:58:04.388Z,41.3077
2023-05-10T00:59:06.018Z,46.0769
2023-05-10T01:00:07.745Z,40.7692
2023-05-10T01:01:09.313Z,44.3077
2023-05-10T01:02:12.752Z,45.6154
2023-05-10T01:03:12.736Z,43.3077
2023-05-10T01:04:14.241Z,40.4615
2023-05-10T01:05:16.048Z,43.5385
2023-05-10T01:06:17.460Z,43.2308
2023-05-10T01:07:19.224Z,42.6923
2023-05-10T01:08:20.755Z,41.9231
2023-05-10T01:09:22.435Z,41.9231
2023-05-10T01:10:24.072Z,39.0769
2023-05-10T01:11:25.702Z,38.2308
2023-05-10T01:12:27.372Z,40.3846
2023-05-10T01:13:29.104Z,40.0000
2023-05-10T01:14:30.622Z,36.6154
2023-05-10T01:15:32.309Z,43.6923
2023-05-10T01:16:33.999Z,40.5385
2023-05-10T01:17:35.803Z,40.8462
2023-05-10T01:18:37.138Z,37.3077
2023-05-10T01:19:38.852Z,37.0000
2023-05-10T01:20:40.469Z,39.2308
2023-05-10T01:21:42.144Z,40.6154
2023-05-10T01:22:43.793Z,39.6923
2023-05-10T01:23:45.406Z,38.6154
2023-05-10T01:24:47.037Z,39.1538
2023-05-10T01:25:48.680Z,41.2308
2023-05-10T01:26:50.317Z,38.9231
2023-05-10T01:27:52.212Z,39.0000
2023-05-10T01:28:53.646Z,36.3846
2023-05-10T01:30:05.907Z,41.6154
2023-05-10T01:30:56.891Z,38.8462
2023-05-10T01:31:58.541Z,34.0769
2023-05-10T01:33:00.250Z,37.6923
2023-05-10T01:34:01.905Z,38.3077
2023-05-10T01:35:03.514Z,41.3846
2023-05-10T01:36:05.247Z,40.0769
2023-05-10T01:37:06.828Z,38.4615
2023-05-10T01:38:08.439Z,36.1538
2023-05-10T01:39:10.057Z,35.3846
2023-05-10T01:40:11.653Z,39.9231
2023-05-10T01:41:13.339Z,34.6154
2023-05-10T01:42:14.948Z,36.6923
2023-05-10T01:43:16.660Z,38.1538
2023-05-10T01:44:18.274Z,40.9231
2023-05-10T01:45:19.905Z,39.8462
2023-05-10T01:46:21.580Z,43.1538
2023-05-10T01:47:23.194Z,39.7692
2023-05-10T01:48:24.871Z,34.6154
2023-05-10T01:49:26.556Z,35.5385
2023-05-10T01:50:28.100Z,37.2308
2023-05-10T01:51:29.750Z,37.8462
2023-05-10T01:52:31.445Z,38.7692
2023-05-10T01:53:33.244Z,38.3077
2023-05-10T01:54:34.653Z,37.6154
2023-05-10T01:55:36.340Z,37.7692
2023-05-10T01:56:37.884Z,39.0769
2023-05-10T01:57:39.524Z,38.3846
2023-05-10T01:58:41.191Z,39.3077
2023-05-10T01:59:42.816Z,34.3846
2023-05-10T02:00:44.435Z,37.2308
2023-05-10T02:01:46.128Z,38.3077
2023-05-10T02:02:47.777Z,39.2308
2023-05-10T02:03:49.448Z,35.4615
2023-05-10T02:04:52.197Z,39.5385
2023-05-10T02:05:53.708Z,36.6154
2023-05-10T02:06:55.328Z,30.0000
2023-05-10T02:07:56.096Z,34.8462
2023-05-10T02:08:58.344Z,35.5385
2023-05-10T02:09:59.484Z,36.4615
2023-05-10T02:11:01.990Z,40.6154
2023-05-10T02:12:03.704Z,39.6923
2023-05-10T02:13:04.261Z,39.9231
2023-05-10T02:14:06.230Z,38.6923
2023-05-10T02:15:07.631Z,35.5385
2023-05-10T02:16:09.261Z,35.4615
2023-05-10T02:17:10.806Z,34.1538
2023-05-10T02:18:12.507Z,37.4615
2023-05-10T02:19:14.141Z,35.3077
2023-05-10T02:20:16.460Z,39.4615
2023-05-10T02:21:17.419Z,38.9231
2023-05-10T02:22:19.081Z,36.0000
2023-05-10T02:23:20.679Z,37.6923
2023-05-10T02:24:22.360Z,38.5385
2023-05-10T02:25:24.043Z,35.4615
2023-05-10T02:26:25.626Z,38.4615
2023-05-10T02:27:27.257Z,36.6923
2023-05-10T02:28:28.945Z,41.2308
2023-05-10T02:29:30.704Z,35.4615
2023-05-10T02:30:32.268Z,37.3077
2023-05-10T02:31:34.015Z,37.1538
2023-05-10T02:32:35.629Z,37.3077
2023-05-10T02:33:37.153Z,35.9231
2023-05-10T02:34:38.907Z,33.6923
2023-05-10T02:35:40.465Z,35.0000
2023-05-10T02:36:42.168Z,38.4615
2023-05-10T02:37:43.806Z,38.3077
2023-05-10T02:38:45.365Z,40.1538
2023-05-10T02:39:47.116Z,36.7692
2023-05-10T02:40:48.702Z,36.0769
2023-05-10T02:41:50.285Z,38.3077
2023-05-10T02:42:51.957Z,35.7692
2023-05-10T02:43:53.632Z,26.0000
2023-05-10T02:44:55.226Z,39.3077
2023-05-10T02:45:57.274Z,39.0769
2023-05-10T02:46:58.478Z,39.9231
2023-05-10T02:48:00.246Z,39.3846
2023-05-10T02:49:01.795Z,35.0769
2023-05-10T02:50:03.426Z,39.3077
2023-05-10T02:51:05.088Z,38.9231
2023-05-10T02:52:06.748Z,37.2308
2023-05-10T02:53:08.333Z,34.5385
2023-05-10T02:54:10.080Z,36.0000
2023-05-10T02:55:11.645Z,37.2308
2023-05-10T02:56:13.355Z,40.9231
2023-05-10T02:57:15.009Z,44.0000
2023-05-10T02:58:16.609Z,50.7692
2023-05-10T02:59:18.213Z,54.4615
2023-05-10T03:00:19.929Z,56.6923
2023-05-10T03:01:21.517Z,59.5385
2023-05-10T03:02:23.190Z,58.3846
2023-05-10T03:03:24.775Z,61.5385
2023-05-10T03:04:26.472Z,62.8462
2023-05-10T03:05:28.100Z,60.3077
2023-05-10T03:06:29.752Z,58.8462
2023-05-10T03:07:31.356Z,59.0000
2023-05-10T03:08:33.041Z,62.0769
2023-05-10T03:09:34.703Z,63.4615
2023-05-10T03:10:36.351Z,59.6923
2023-05-10T03:11:38.090Z,60.2308
2023-05-10T03:12:39.582Z,59.9231
2023-05-10T03:13:41.282Z,60.7692
2023-05-10T03:14:42.858Z,66.3846
2023-05-10T03:15:44.608Z,62.0000
2023-05-10T03:16:46.337Z,60.3077
2023-05-10T03:17:47.795Z,62.6923
2023-05-10T03:18:49.453Z,63.6923
2023-05-10T03:19:51.143Z,65.1538
2023-05-10T03:20:52.800Z,66.0000
2023-05-10T03:21:54.565Z,64.0769
2023-05-10T03:22:56.025Z,64.8462
2023-05-10T03:23:57.689Z,66.6154
2023-05-10T03:24:59.342Z,64.6923
2023-05-10T03:26:01.024Z,66.3846
2023-05-10T03:27:02.629Z,63.6154
2023-05-10T03:28:04.249Z,67.5385
2023-05-10T03:29:05.897Z,66.0000
2023-05-10T03:30:07.488Z,70.3077
2023-05-10T03:31:09.204Z,67.8462
2023-05-10T03:32:10.817Z,64.2308
2023-05-10T03:33:12.422Z,65.3846
2023-05-10T03:34:14.108Z,64.6154
2023-05-10T03:35:15.823Z,68.3077
2023-05-10T03:36:17.487Z,69.5385
2023-05-10T03:37:19.039Z,69.1538
2023-05-10T03:38:20.725Z,66.3077
2023-05-10T03:39:22.378Z,68.2308
2023-05-10T03:40:23.937Z,68.0000
2023-05-10T03:41:25.572Z,69.9231
2023-05-10T03:42:27.331Z,70.0000
2023-05-10T03:43:28.848Z,70.7692
2023-05-10T03:44:30.513Z,71.1538
2023-05-10T03:45:32.218Z,69.8462
2023-05-10T03:46:33.834Z,66.3077
2023-05-10T03:47:35.479Z,67.1538
2023-05-10T03:48:37.096Z,71.4615
2023-05-10T03:49:38.709Z,65.3846
2023-05-10T03:50:40.389Z,66.0000
2023-05-10T03:51:42.110Z,71.3846
2023-05-10T03:52:43.684Z,66.6923
2023-05-10T03:53:45.277Z,68.4615
2023-05-10T03:54:46.932Z,67.8462
2023-05-10T03:55:48.597Z,67.3846
2023-05-10T03:56:50.256Z,68.9231
2023-05-10T03:57:51.918Z,70.6154
2023-05-10T03:58:53.476Z,69.0769
2023-05-10T03:59:55.049Z,71.8462
2023-05-10T04:00:56.700Z,68.3077
2023-05-10T04:01:58.368Z,71.8462
2023-05-10T04:03:00.121Z,71.5385
2023-05-10T04:04:01.624Z,74.7692
2023-05-10T04:05:03.285Z,71.3077
2023-05-10T04:06:04.939Z,71.4615
2023-05-10T04:07:06.531Z,71.1538
2023-05-10T04:08:08.212Z,72.3846
2023-05-10T04:09:09.819Z,73.0000
2023-05-10T04:10:11.499Z,72.0000
2023-05-10T04:11:15.724Z,69.3077
2023-05-10T04:12:14.747Z,72.6154
2023-05-10T04:13:16.552Z,75.3846
2023-05-10T04:14:18.043Z,77.0000
2023-05-10T04:15:19.671Z,72.3846
2023-05-10T04:16:21.323Z,76.3077
2023-05-10T04:17:23.075Z,76.0769
2023-05-10T04:18:24.656Z,72.7692
2023-05-10T04:19:27.273Z,74.8462
2023-05-10T04:20:27.932Z,75.3846
2023-05-10T04:21:29.568Z,72.0000
2023-05-10T04:22:31.175Z,78.4615
2023-05-10T04:23:32.930Z,72.9231
2023-05-10T04:24:34.580Z,75.2308
2023-05-10T04:25:37.256Z,77.6154
2023-05-10T04:26:37.830Z,77.0000
2023-05-10T04:27:39.429Z,73.3077
2023-05-10T04:28:41.227Z,75.2308
2023-05-10T04:29:42.794Z,74.5385
2023-05-10T04:30:44.420Z,76.4615
2023-05-10T04:31:46.066Z,76.0000
2023-05-10T04:32:48.721Z,75.0769
2023-05-10T04:33:49.347Z,78.8462
2023-05-10T04:34:50.972Z,75.1538
2023-05-10T04:35:52.597Z,74.0769
2023-05-10T04:36:54.295Z,76.6923
2023-05-10T04:37:55.833Z,76.0000
2023-05-10T04:38:57.606Z,79.1538
2023-05-10T04:39:59.160Z,76.5385
2023-05-10T04:41:00.797Z,76.4615
2023-05-10T04:42:02.533Z,81.0000
2023-05-10T04:43:04.209Z,77.0000
2023-05-10T04:44:06.003Z,77.0769
2023-05-10T04:45:07.520Z,75.6154
2023-05-10T04:46:09.168Z,75.6923
2023-05-10T04:47:12.676Z,79.6923
2023-05-10T04:48:12.474Z,77.1538
2023-05-10T04:49:14.101Z,77.6154
2023-05-10T04:50:15.969Z,76.9231
2023-05-10T04:51:17.473Z,75.8462
2023-05-10T04:52:18.959Z,79.3846
2023-05-10T04:53:20.684Z,80.7692
2023-05-10T04:54:23.040Z,82.3077
2023-05-10T04:55:23.989Z,83.9231
2023-05-10T04:56:25.574Z,87.0000
2023-05-10T04:57:27.234Z,87.4615
2023-05-10T04:58:28.830Z,89.3846
2023-05-10T04:59:30.938Z,91.2308
2023-05-10T05:00:32.138Z,91.2308
2023-05-10T05:01:33.955Z,88.0769
2023-05-10T05:02:35.483Z,84.4615
2023-05-10T05:03:38.076Z,88.5385
2023-05-10T05:04:38.632Z,96.0769
2023-05-10T05:05:40.349Z,100.1538
2023-05-10T05:06:42.912Z,96.0000
2023-05-10T05:07:43.568Z,90.4615
2023-05-10T05:08:45.280Z,87.5385
2023-05-10T05:09:46.832Z,93.2308
2023-05-10T05:10:48.614Z,98.7692
2023-05-10T05:11:50.173Z,104.0000
2023-05-10T05:12:51.925Z,99.3077
2023-05-10T05:13:53.518Z,91.1538
2023-05-10T05:14:55.081Z,96.0769
2023-05-10T05:15:57.009Z,102.6923
2023-05-10T05:16:58.422Z,103.9231
2023-05-10T05:18:00.110Z,106.9231
2023-05-10T05:19:01.686Z,99.3077
2023-05-10T05:20:03.336Z,95.4615
2023-05-10T05:21:04.954Z,94.6154
2023-05-10T05:22:06.641Z,104.6154
2023-05-10T05:23:08.257Z,106.9231
2023-05-10T05:24:09.906Z,111.1538
2023-05-10T05:25:11.532Z,100.8462
2023-05-10T05:26:13.214Z,98.9231
2023-05-10T05:27:14.849Z,101.3846
2023-05-10T05:28:16.402Z,110.9231
2023-05-10T05:29:18.055Z,115.7692
2023-05-10T05:30:19.804Z,105.6154
2023-05-10T05:31:22.413Z,103.0000
2023-05-10T05:32:22.959Z,103.7692
2023-05-10T05:33:24.611Z,109.7692
2023-05-10T05:34:26.475Z,112.8462
2023-05-10T05:35:28.927Z,117.0769
2023-05-10T05:36:29.543Z,107.8462
2023-05-10T05:37:31.482Z,103.6923
2023-05-10T05:38:33.817Z,109.6923
2023-05-10T05:39:35.331Z,114.3846
2023-05-10T05:40:36.164Z,121.2308
2023-05-10T05:41:38.761Z,117.4615
2023-05-10T05:42:40.491Z,109.0769
2023-05-10T05:43:40.957Z,107.6154
2023-05-10T05:44:42.941Z,116.0000
2023-05-10T05:45:45.381Z,121.8462
2023-05-10T05:46:45.972Z,124.7692
2023-05-10T05:47:48.585Z,119.6923
2023-05-10T05:48:49.297Z,114.2308
2023-05-10T05:49:50.925Z,118.8462
2023-05-10T05:50:52.527Z,121.4615
2023-05-10T05:51:54.462Z,124.8462
2023-05-10T05:52:56.793Z,128.1538
2023-05-10T05:53:57.510Z,117.2308
2023-05-10T05:54:59.091Z,109.8462
2023-05-10T05:56:00.882Z,112.2308
2023-05-10T05:57:02.460Z,121.9231
2023-05-10T05:58:04.062Z,125.3077
2023-05-10T05:59:05.690Z,124.1538
2023-05-10T06:00:07.409Z,114.0769
2023-05-10T06:01:08.972Z,111.7692
2023-05-10T06:02:10.746Z,120.6154
2023-05-10T06:03:13.360Z,125.0769
2023-05-10T06:04:13.974Z,131.3077
2023-05-10T06:05:16.612Z,123.8462
2023-05-10T06:06:17.281Z,112.4615
2023-05-10T06:07:19.857Z,116.0000
2023-05-10T06:08:20.529Z,127.3846
2023-05-10T06:09:22.189Z,128.3077
2023-05-10T06:10:23.802Z,133.3846
2023-05-10T06:11:26.409Z,117.0769
2023-05-10T06:12:27.358Z,118.0000
2023-05-10T06:13:29.936Z,130.9231
2023-05-10T06:14:30.298Z,140.3077
2023-05-10T06:15:32.048Z,139.9231
2023-05-10T06:16:34.713Z,130.0769
2023-05-10T06:17:35.271Z,123.6154
2023-05-10T06:18:36.939Z,126.3846
2023-05-10T06:19:38.526Z,137.0769
2023-05-10T06:20:40.241Z,137.4615
2023-05-10T06:21:41.862Z,143.7692
2023-05-10T06:22:43.620Z,130.8462
2023-05-10T06:23:45.133Z,129.2308
2023-05-10T06:24:46.756Z,139.0769
2023-05-10T06:25:48.451Z,149.6154
2023-05-10T06:26:50.136Z,149.0769
2023-05-10T06:27:53.651Z,140.4615
2023-05-10T06:28:53.403Z,129.6923
2023-05-10T06:30:02.177Z,136.0769
2023-05-10T06:30:56.631Z,145.3846
2023-05-10T06:31:58.458Z,147.8462
2023-05-10T06:32:59.998Z,148.5385
2023-05-10T06:34:01.542Z,136.6154
2023-05-10T06:35:03.200Z,130.3846
2023-05-10T06:36:04.887Z,139.3077
2023-05-10T06:37:06.490Z,152.3077
2023-05-10T06:38:08.260Z,153.8462
2023-05-10T06:39:09.769Z,149.3846
2023-05-10T06:40:11.497Z,137.1538
2023-05-10T06:41:13.114Z,142.8462
2023-05-10T06:42:14.828Z,149.0000
2023-05-10T06:43:17.354Z,153.0000
2023-05-10T06:44:18.059Z,158.6923
2023-05-10T06:45:19.808Z,144.5385
2023-05-10T06:46:21.284Z,136.3077
2023-05-10T06:47:22.995Z,145.9231
2023-05-10T06:48:24.637Z,153.0000
2023-05-10T06:49:26.226Z,158.9231
2023-05-10T06:50:27.790Z,156.1538
2023-05-10T06:51:29.457Z,137.5385
2023-05-10T06:52:31.107Z,135.3846
2023-05-10T06:53:32.770Z,144.1538
2023-05-10T06:54:34.385Z,159.1538
2023-05-10T06:55:36.084Z,160.6154
2023-05-10T06:56:37.664Z,150.8462
2023-05-10T06:57:39.442Z,144.4615
2023-05-10T06:58:42.003Z,143.6923
2023-05-10T06:59:42.665Z,153.9231
2023-05-10T07:00:44.330Z,156.6154
2023-05-10T07:01:45.945Z,158.1538
2023-05-10T07:02:47.569Z,150.3846
2023-05-10T07:03:49.398Z,142.6154
2023-05-10T07:04:50.901Z,143.0769
2023-05-10T07:05:52.455Z,149.3077
2023-05-10T07:06:54.087Z,161.5385
2023-05-10T07:07:55.761Z,152.0769
2023-05-10T07:08:58.385Z,146.7692
2023-05-10T07:09:59.058Z,135.8462
2023-05-10T07:11:00.656Z,138.0000
2023-05-10T07:12:02.350Z,157.0000
2023-05-10T07:13:04.009Z,159.4615
2023-05-10T07:14:05.657Z,147.3846
2023-05-10T07:15:07.286Z,128.0000
2023-05-10T07:16:08.963Z,129.6154
2023-05-10T07:17:10.586Z,145.7692
2023-05-10T07:18:12.210Z,159.2308
2023-05-10T07:19:13.788Z,163.0000
2023-05-10T07:20:15.564Z,143.9231
2023-05-10T07:21:17.106Z,127.3846
2023-05-10T07:22:18.746Z,136.7692
2023-05-10T07:23:20.402Z,167.6923
2023-05-10T07:24:22.396Z,173.6154
2023-05-10T07:25:23.647Z,158.2308
2023-05-10T07:26:25.882Z,132.4615
2023-05-10T07:27:27.796Z,134.3846
2023-05-10T07:28:28.691Z,152.2308
2023-05-10T07:29:30.303Z,168.7692
2023-05-10T07:30:32.021Z,165.2308
2023-05-10T07:31:33.495Z,140.7692
2023-05-10T07:32:35.300Z,131.1538
2023-05-10T07:33:36.809Z,139.0000
2023-05-10T07:34:38.496Z,169.3846
2023-05-10T07:35:40.111Z,177.6923
2023-05-10T07:36:41.691Z,159.9231
2023-05-10T07:37:43.281Z,133.9231
2023-05-10T07:38:45.003Z,142.3846
2023-05-10T07:39:48.420Z,168.1538
2023-05-10T07:40:48.823Z,183.7692
2023-05-10T07:41:49.917Z,169.3846
2023-05-10T07:42:51.517Z,140.8462
2023-05-10T07:43:53.731Z,139.4615
2023-05-10T07:44:54.885Z,169.4615
2023-05-10T07:45:56.544Z,189.0769
2023-05-10T07:46:58.769Z,175.8462
2023-05-10T07:47:59.804Z,143.1538
2023-05-10T07:49:01.405Z,151.7692
2023-05-10T07:50:03.074Z,174.6923
2023-05-10T07:51:04.792Z,190.3077
2023-05-10T07:52:06.405Z,184.0769
2023-05-10T07:53:08.002Z,162.5385
2023-05-10T07:54:09.641Z,157.1538
2023-05-10T07:55:11.338Z,169.3077
2023-05-10T07:56:12.953Z,187.4615
2023-05-10T07:57:14.596Z,188.4615
2023-05-10T07:58:16.236Z,165.3846
2023-05-10T07:59:17.932Z,172.8462
2023-05-10T08:00:19.828Z,222.0000
2023-05-10T08:01:21.619Z,209.6923
2023-05-10T08:02:22.911Z,229.3846
2023-05-10T08:03:24.647Z,229.6923
2023-05-10T08:04:26.269Z,200.5385
2023-05-10T08:05:27.936Z,194.2308
2023-05-10T08:06:29.568Z,208.0000
2023-05-10T08:07:31.233Z,217.8462
2023-05-10T08:08:33.775Z,226.3846
2023-05-10T08:09:34.503Z,200.7692
2023-05-10T08:10:36.194Z,176.9231
2023-05-10T08:11:37.886Z,182.8462
2023-05-10T08:12:39.414Z,201.7692
2023-05-10T08:13:41.059Z,214.2308
2023-05-10T08:14:42.647Z,216.4615
2023-05-10T08:15:44.453Z,187.6154
2023-05-10T08:16:45.986Z,164.4615
2023-05-10T08:17:48.680Z,173.9231
2023-05-10T08:18:49.204Z,192.0000
2023-05-10T08:19:50.892Z,202.5385
2023-05-10T08:20:53.536Z,208.3077
2023-05-10T08:21:54.194Z,175.9231
2023-05-10T08:22:55.804Z,165.7692
2023-05-10T08:23:57.556Z,179.1538
2023-05-10T08:24:59.073Z,193.0000
2023-05-10T08:26:01.017Z,210.8462
2023-05-10T08:27:02.498Z,202.6923
2023-05-10T08:28:04.147Z,180.5385
2023-05-10T08:29:05.730Z,168.3846
2023-05-10T08:30:07.424Z,182.6154
2023-05-10T08:31:09.147Z,196.6154
2023-05-10T08:32:10.720Z,206.4615
2023-05-10T08:33:12.426Z,200.4615
2023-05-10T08:34:14.039Z,171.3077
2023-05-10T08:35:15.852Z,170.6154
2023-05-10T08:36:17.362Z,178.6154
2023-05-10T08:37:19.012Z,189.1538
2023-05-10T08:38:21.533Z,199.0000
2023-05-10T08:39:29.847Z,192.3846
2023-05-10T08:40:23.878Z,160.4615
2023-05-10T08:41:25.511Z,158.3846
2023-05-10T08:42:27.187Z,173.4615
2023-05-10T08:43:29.765Z,181.4615
2023-05-10T08:44:30.431Z,194.0769
2023-05-10T08:45:32.087Z,184.3077
2023-05-10T08:46:33.770Z,156.6154
2023-05-10T08:47:35.365Z,149.6154
2023-05-10T08:48:37.025Z,160.5385
2023-05-10T08:49:38.654Z,177.7692
2023-05-10T08:50:40.592Z,183.5385
2023-05-10T08:51:43.823Z,175.6923
2023-05-10T08:52:43.565Z,149.6154
2023-05-10T08:53:45.492Z,148.6923
2023-05-10T08:54:47.695Z,160.6923
2023-05-10T08:55:48.386Z,173.5385
2023-05-10T08:56:50.192Z,185.7692
2023-05-10T08:57:51.642Z,175.7692
2023-05-10T08:58:53.444Z,147.0769
2023-05-10T08:59:55.002Z,141.6154
2023-05-10T09:00:56.801Z,151.4615
2023-05-10T09:01:58.374Z,160.0000
2023-05-10T09:03:00.038Z,176.6154
2023-05-10T09:04:02.045Z,171.0000
2023-05-10T09:05:03.413Z,140.2308
2023-05-10T09:06:05.063Z,136.3077
2023-05-10T09:07:06.623Z,144.6923
2023-05-10T09:08:08.324Z,156.3077
2023-05-10T09:09:09.852Z,174.1538
2023-05-10T09:10:11.541Z,166.2308
2023-05-10T09:11:13.192Z,137.6154
2023-05-10T09:12:14.810Z,132.2308
2023-05-10T09:13:16.527Z,139.9231
2023-05-10T09:14:18.122Z,153.0000
2023-05-10T09:15:19.831Z,164.0769
2023-05-10T09:16:22.460Z,156.4615
2023-05-10T09:17:23.152Z,133.0000
2023-05-10T09:18:26.018Z,126.1538
2023-05-10T09:19:27.400Z,135.5385
2023-05-10T09:20:27.884Z,152.2308
2023-05-10T09:21:29.505Z,159.6923
2023-05-10T09:22:31.282Z,149.6154
2023-05-10T09:23:32.764Z,126.9231
2023-05-10T09:24:35.416Z,123.0000
2023-05-10T09:25:36.094Z,135.1538
2023-05-10T09:26:37.747Z,140.6154
2023-05-10T09:27:39.345Z,157.8462
2023-05-10T09:28:41.088Z,149.0000
2023-05-10T09:29:42.624Z,129.7692
2023-05-10T09:30:44.340Z,124.0769
2023-05-10T09:31:45.928Z,132.9231
2023-05-10T09:32:47.643Z,140.3846
2023-05-10T09:33:49.214Z,162.4615
2023-05-10T09:34:50.847Z,146.9231
2023-05-10T09:35:52.586Z,126.3077
2023-05-10T09:36:54.121Z,132.5385
2023-05-10T09:37:55.861Z,138.6923
2023-05-10T09:38:57.535Z,146.3846
2023-05-10T09:39:59.076Z,161.3077
2023-05-10T09:41:00.817Z,140.2308
2023-05-10T09:42:02.362Z,126.1538
2023-05-10T09:43:04.037Z,125.0000
2023-05-10T09:44:05.686Z,136.3846
2023-05-10T09:45:07.320Z,142.6154
2023-05-10T09:46:09.003Z,153.6923
2023-05-10T09:47:10.564Z,136.9231
2023-05-10T09:48:12.462Z,120.1538
2023-05-10T09:49:13.853Z,122.3846
2023-05-10T09:50:15.563Z,131.5385
2023-05-10T09:51:17.235Z,141.8462
2023-05-10T09:52:18.834Z,152.7692
2023-05-10T09:53:20.468Z,127.3077
2023-05-10T09:54:22.110Z,121.1538
2023-05-10T09:55:23.765Z,122.2308
2023-05-10T09:56:25.431Z,129.9231
2023-05-10T09:57:27.038Z,133.0000
2023-05-10T09:58:28.733Z,144.6154
2023-05-10T09:59:30.325Z,124.0000
2023-05-10T10:00:31.975Z,115.3846
2023-05-10T10:01:33.705Z,114.1538
2023-05-10T10:02:35.283Z,125.6154
2023-05-10T10:03:36.936Z,138.2308
2023-05-10T10:04:38.545Z,144.0769
2023-05-10T10:05:40.274Z,116.1538
2023-05-10T10:06:41.831Z,111.5385
2023-05-10T10:07:43.476Z,117.7692
2023-05-10T10:08:45.192Z,127.0769
2023-05-10T10:09:46.827Z,131.2308
2023-05-10T10:10:48.437Z,131.9231
2023-05-10T10:11:50.064Z,104.1538
2023-05-10T10:12:51.666Z,98.2308
2023-05-10T10:13:53.362Z,108.3846
2023-05-10T10:14:54.971Z,118.6923
2023-05-10T10:15:56.627Z,126.8462
2023-05-10T10:17:06.787Z,128.0000
2023-05-10T10:18:00.044Z,109.6923
2023-05-10T10:19:01.700Z,98.9231
2023-05-10T10:20:03.266Z,110.6154
2023-05-10T10:21:04.804Z,115.2308
2023-05-10T10:22:06.583Z,122.5385
2023-05-10T10:23:08.134Z,129.8462
2023-05-10T10:24:09.857Z,110.4615
2023-05-10T10:25:11.381Z,105.9231
2023-05-10T10:26:13.106Z,102.9231
2023-05-10T10:27:14.692Z,116.6923
2023-05-10T10:28:16.271Z,120.6923
2023-05-10T10:29:17.991Z,108.1538
2023-05-10T10:30:19.731Z,108.0000
2023-05-10T10:31:21.323Z,108.3077
2023-05-10T10:32:23.022Z,109.6154
2023-05-10T10:33:28.739Z,121.3077
2023-05-10T10:34:26.234Z,124.7692
2023-05-10T10:35:27.890Z,114.7692
2023-05-10T10:36:29.554Z,111.6923
2023-05-10T10:37:31.096Z,111.7692
2023-05-10T10:38:32.773Z,114.5385
2023-05-10T10:39:34.467Z,125.2308
2023-05-10T10:40:36.083Z,123.6154
2023-05-10T10:41:37.717Z,116.3077
2023-05-10T10:42:39.358Z,111.3846
2023-05-10T10:43:40.997Z,108.5385
2023-05-10T10:44:42.614Z,116.1538
2023-05-10T10:45:44.238Z,127.3846
2023-05-10T10:46:45.946Z,127.2308
2023-05-10T10:47:47.642Z,110.5385
2023-05-10T10:48:49.139Z,108.1538
2023-05-10T10:49:51.547Z,107.6923
2023-05-10T10:50:52.611Z,112.9231
2023-05-10T10:51:54.079Z,121.5385
2023-05-10T10:52:55.830Z,119.0000
2023-05-10T10:53:57.402Z,104.2308
2023-05-10T10:54:59.175Z,101.9231
2023-05-10T10:56:00.744Z,107.9231
2023-05-10T10:57:02.348Z,117.0769
2023-05-10T10:58:03.980Z,115.9231
2023-05-10T10:59:05.653Z,108.5385
2023-05-10T11:00:07.295Z,103.6154
2023-05-10T11:01:08.939Z,97.7692
2023-05-10T11:02:10.587Z,100.6923
2023-05-10T11:03:12.246Z,121.3077
2023-05-10T11:04:14.052Z,112.3846
2023-05-10T11:05:15.602Z,103.5385
2023-05-10T11:06:17.152Z,101.1538
2023-05-10T11:07:18.820Z,93.1538
2023-05-10T11:08:20.400Z,104.6923
2023-05-10T11:09:21.982Z,117.0769
2023-05-10T11:10:24.038Z,113.6154
2023-05-10T11:11:25.286Z,103.4615
2023-05-10T11:12:27.105Z,94.9231
2023-05-10T11:13:28.567Z,93.4615
2023-05-10T11:14:30.363Z,100.6923
2023-05-10T11:15:31.988Z,121.8462
2023-05-10T11:16:33.553Z,107.3077
2023-05-10T11:17:35.231Z,96.5385
2023-05-10T11:18:36.916Z,96.6154
2023-05-10T11:19:38.448Z,96.3077
2023-05-10T11:20:40.203Z,99.9231
2023-05-10T11:21:41.718Z,113.0769
2023-05-10T11:22:43.471Z,108.4615
2023-05-10T11:23:45.066Z,97.7692
2023-05-10T11:24:47.860Z,90.4615
2023-05-10T11:25:48.382Z,89.1538
2023-05-10T11:26:50.000Z,96.0769
2023-05-10T11:27:51.603Z,121.1538
2023-05-10T11:28:53.280Z,108.6923
2023-05-10T11:29:54.881Z,93.9231
2023-05-10T11:30:56.625Z,86.0769
2023-05-10T11:31:58.183Z,87.5385
2023-05-10T11:32:59.816Z,100.9231
2023-05-10T11:34:01.464Z,113.3077
2023-05-10T11:35:03.090Z,108.1538
2023-05-10T11:36:04.810Z,92.2308
2023-05-10T11:37:06.354Z,88.3077
2023-05-10T11:38:08.031Z,91.3077
2023-05-10T11:39:09.667Z,101.9231
2023-05-10T11:40:11.386Z,108.9231
2023-05-10T11:41:12.966Z,101.5385
2023-05-10T11:42:15.362Z,89.4615
2023-05-10T11:43:16.209Z,82.0000
2023-05-10T11:44:17.923Z,83.9231
2023-05-10T11:45:19.549Z,101.1538
2023-05-10T11:46:21.307Z,110.1538
2023-05-10T11:47:22.918Z,109.0000
2023-05-10T11:48:24.490Z,88.6154
2023-05-10T11:49:26.159Z,86.7692
2023-05-10T11:50:27.724Z,85.4615
2023-05-10T11:51:29.489Z,100.8462
2023-05-10T11:52:31.086Z,114.4615
2023-05-10T11:53:32.677Z,96.6923
2023-05-10T11:54:34.433Z,92.3077
2023-05-10T11:55:35.939Z,94.5385
2023-05-10T11:56:37.666Z,94.2308
2023-05-10T11:57:39.564Z,100.0769
2023-05-10T11:58:40.930Z,108.4615
2023-05-10T11:59:43.331Z,100.0769
2023-05-10T12:00:44.173Z,100.3077
2023-05-10T12:01:45.903Z,96.0000
2023-05-10T12:02:47.585Z,100.0000
2023-05-10T12:03:49.226Z,108.1538
2023-05-10T12:04:50.873Z,110.7692
2023-05-10T12:05:52.404Z,104.6154
2023-05-10T12:06:54.116Z,108.3846
2023-05-10T12:07:55.736Z,105.3846
2023-05-10T12:08:57.310Z,110.6154
2023-05-10T12:09:59.054Z,111.6154
2023-05-10T12:11:00.609Z,103.2308
2023-05-10T12:12:02.295Z,100.5385
2023-05-10T12:13:03.899Z,95.9231
2023-05-10T12:14:05.638Z,98.2308